sensor_id;sensor_type;location;lat;lon;timestamp;P1;durP1;ratioP1;P2;durP2;ratioP2
52396;SDS011;38322;53.108;6.308;2023-01-06T06:03:16;8.85;;;4.82;;
52396;SDS011;38322;53.108;6.308;2023-01-06T06:05:42;7.93;;;5.78;;
52396;SDS011;38322;53.108;6.308;2023-01-06T06:08:08;5.88;;;5.07;;
52396;SDS011;38322;53.108;6.308;2023-01-06T06:10:33;9.57;;;5.63;;
52396;SDS011;38322;53.108;6.308;2023-01-06T06:12:59;7.05;;;4.90;;
52396;SDS011;38322;53.108;6.308;2023-01-06T06:15:25;7.18;;;5.65;;
52396;SDS011;38322;53.108;6.308;2023-01-06T06:17:51;12.05;;;6.18;;
52396;SDS011;38322;53.108;6.308;2023-01-06T06:20:17;5.45;;;4.80;;
52396;SDS011;38322;53.108;6.308;2023-01-06T06:22:42;8.20;;;5.80;;
52396;SDS011;38322;53.108;6.308;2023-01-06T06:25:08;5.82;;;5.18;;
52396;SDS011;38322;53.108;6.308;2023-01-06T06:27:34;6.22;;;4.60;;
52396;SDS011;38322;53.108;6.308;2023-01-06T06:30:02;6.72;;;4.20;;
52396;SDS011;38322;53.108;6.308;2023-01-06T06:32:30;6.90;;;4.70;;
52396;SDS011;38322;53.108;6.308;2023-01-06T06:34:56;9.00;;;5.75;;
52396;SDS011;38322;53.108;6.308;2023-01-06T06:37:22;8.05;;;4.05;;
52396;SDS011;38322;53.108;6.308;2023-01-06T06:39:48;4.78;;;3.72;;
52396;SDS011;38322;53.108;6.308;2023-01-06T06:42:14;7.15;;;3.83;;
52396;SDS011;38322;53.108;6.308;2023-01-06T06:44:39;5.75;;;4.22;;
52396;SDS011;38322;53.108;6.308;2023-01-06T06:47:05;6.57;;;4.53;;
52396;SDS011;38322;53.108;6.308;2023-01-06T06:49:31;4.97;;;4.03;;
52396;SDS011;38322;53.108;6.308;2023-01-06T06:51:57;5.93;;;3.35;;
52396;SDS011;38322;53.108;6.308;2023-01-06T06:54:23;5.18;;;3.38;;
52396;SDS011;38322;53.108;6.308;2023-01-06T06:56:48;5.25;;;3.97;;
52396;SDS011;38322;53.108;6.308;2023-01-06T06:59:14;4.40;;;3.92;;
52396;SDS011;38322;53.108;6.308;2023-01-06T07:01:40;4.93;;;4.07;;
52396;SDS011;38322;53.108;6.308;2023-01-06T07:04:07;3.53;;;2.75;;
52396;SDS011;38322;53.108;6.308;2023-01-06T07:06:33;7.28;;;2.70;;
52396;SDS011;38322;53.108;6.308;2023-01-06T07:08:59;3.20;;;2.25;;
52396;SDS011;38322;53.108;6.308;2023-01-06T07:11:25;2.42;;;2.15;;
52396;SDS011;38322;53.108;6.308;2023-01-06T07:13:51;2.35;;;1.75;;
52396;SDS011;38322;53.108;6.308;2023-01-06T07:16:16;1.67;;;1.25;;
52396;SDS011;38322;53.108;6.308;2023-01-06T07:18:43;1.50;;;1.35;;
52396;SDS011;38322;53.108;6.308;2023-01-06T07:21:09;2.60;;;1.30;;
52396;SDS011;38322;53.108;6.308;2023-01-06T07:23:35;3.00;;;0.90;;
52396;SDS011;38322;53.108;6.308;2023-01-06T07:26:01;1.80;;;1.10;;
52396;SDS011;38322;53.108;6.308;2023-01-06T07:28:27;1.48;;;0.80;;
52396;SDS011;38322;53.108;6.308;2023-01-06T07:30:54;3.65;;;1.63;;
52396;SDS011;38322;53.108;6.308;2023-01-06T07:33:20;4.90;;;2.00;;
52396;SDS011;38322;53.108;6.308;2023-01-06T07:35:46;3.78;;;2.03;;
52396;SDS011;38322;53.108;6.308;2023-01-06T07:38:16;6.18;;;1.92;;
52396;SDS011;38322;53.108;6.308;2023-01-06T07:40:42;5.45;;;1.38;;
52396;SDS011;38322;53.108;6.308;2023-01-06T07:43:09;2.85;;;1.00;;
52396;SDS011;38322;53.108;6.308;2023-01-06T07:45:35;2.53;;;0.85;;
52396;SDS011;38322;53.108;6.308;2023-01-06T07:48:02;4.57;;;0.43;;
52396;SDS011;38322;53.108;6.308;2023-01-06T07:50:28;3.63;;;0.65;;
52396;SDS011;38322;53.108;6.308;2023-01-06T07:52:56;2.85;;;0.47;;
52396;SDS011;38322;53.108;6.308;2023-01-06T07:55:23;3.75;;;0.75;;
52396;SDS011;38322;53.108;6.308;2023-01-06T07:57:49;5.57;;;2.17;;
52396;SDS011;38322;53.108;6.308;2023-01-06T08:00:15;5.32;;;0.43;;
52396;SDS011;38322;53.108;6.308;2023-01-06T08:02:41;2.53;;;0.47;;
52396;SDS011;38322;53.108;6.308;2023-01-06T08:05:07;5.80;;;1.20;;
52396;SDS011;38322;53.108;6.308;2023-01-06T08:07:33;4.00;;;1.25;;
52396;SDS011;38322;53.108;6.308;2023-01-06T08:09:59;2.72;;;0.70;;
52396;SDS011;38322;53.108;6.308;2023-01-06T08:12:25;2.30;;;0.65;;
52396;SDS011;38322;53.108;6.308;2023-01-06T08:14:50;4.38;;;0.77;;
52396;SDS011;38322;53.108;6.308;2023-01-06T08:17:16;5.10;;;0.65;;
52396;SDS011;38322;53.108;6.308;2023-01-06T08:19:42;7.05;;;0.50;;
52396;SDS011;38322;53.108;6.308;2023-01-06T08:22:08;11.10;;;1.13;;
52396;SDS011;38322;53.108;6.308;2023-01-06T08:24:34;7.80;;;1.58;;
52396;SDS011;38322;53.108;6.308;2023-01-06T08:27:00;7.38;;;0.57;;
52396;SDS011;38322;53.108;6.308;2023-01-06T08:29:26;6.60;;;0.50;;
52396;SDS011;38322;53.108;6.308;2023-01-06T08:31:52;4.70;;;0.63;;
52396;SDS011;38322;53.108;6.308;2023-01-06T08:34:19;10.93;;;1.33;;
52396;SDS011;38322;53.108;6.308;2023-01-06T08:36:45;4.65;;;1.80;;
52396;SDS011;38322;53.108;6.308;2023-01-06T08:39:11;7.90;;;0.60;;
52396;SDS011;38322;53.108;6.308;2023-01-06T08:41:38;8.07;;;1.38;;
52396;SDS011;38322;53.108;6.308;2023-01-06T08:44:05;11.27;;;1.42;;
52396;SDS011;38322;53.108;6.308;2023-01-06T08:46:31;9.93;;;0.65;;
52396;SDS011;38322;53.108;6.308;2023-01-06T08:48:58;8.52;;;0.73;;
52396;SDS011;38322;53.108;6.308;2023-01-06T08:51:24;10.77;;;1.30;;
52396;SDS011;38322;53.108;6.308;2023-01-06T08:53:51;7.55;;;1.60;;
52396;SDS011;38322;53.108;6.308;2023-01-06T08:56:18;8.40;;;1.27;;
52396;SDS011;38322;53.108;6.308;2023-01-06T08:58:54;12.70;;;2.17;;
52396;SDS011;38322;53.108;6.308;2023-01-06T09:01:23;8.15;;;1.00;;
52396;SDS011;38322;53.108;6.308;2023-01-06T09:03:51;7.68;;;0.70;;
52396;SDS011;38322;53.108;6.308;2023-01-06T09:06:17;10.77;;;1.00;;
52396;SDS011;38322;53.108;6.308;2023-01-06T09:08:44;4.88;;;0.90;;
52396;SDS011;38322;53.108;6.308;2023-01-06T09:11:13;3.10;;;0.95;;
52396;SDS011;38322;53.108;6.308;2023-01-06T09:13:41;5.85;;;0.60;;
52396;SDS011;38322;53.108;6.308;2023-01-06T09:16:07;8.73;;;0.75;;
52396;SDS011;38322;53.108;6.308;2023-01-06T09:18:34;10.45;;;1.98;;
52396;SDS011;38322;53.108;6.308;2023-01-06T09:21:00;7.57;;;1.05;;
52396;SDS011;38322;53.108;6.308;2023-01-06T09:23:27;9.93;;;1.35;;
52396;SDS011;38322;53.108;6.308;2023-01-06T09:25:53;6.93;;;0.80;;
52396;SDS011;38322;53.108;6.308;2023-01-06T09:28:20;8.20;;;1.83;;
52396;SDS011;38322;53.108;6.308;2023-01-06T09:30:47;10.35;;;1.58;;
52396;SDS011;38322;53.108;6.308;2023-01-06T09:33:13;11.80;;;1.02;;
52396;SDS011;38322;53.108;6.308;2023-01-06T09:35:39;9.70;;;1.85;;
52396;SDS011;38322;53.108;6.308;2023-01-06T09:38:07;7.82;;;1.83;;
52396;SDS011;38322;53.108;6.308;2023-01-06T09:40:39;12.68;;;1.30;;
52396;SDS011;38322;53.108;6.308;2023-01-06T09:43:27;9.57;;;1.00;;
52396;SDS011;38322;53.108;6.308;2023-01-06T09:46:12;8.43;;;2.17;;
52396;SDS011;38322;53.108;6.308;2023-01-06T09:48:45;10.00;;;1.50;;
52396;SDS011;38322;53.108;6.308;2023-01-06T09:51:27;10.93;;;1.27;;
52396;SDS011;38322;53.108;6.308;2023-01-06T09:53:57;5.95;;;1.13;;
52396;SDS011;38322;53.108;6.308;2023-01-06T09:56:29;8.55;;;0.65;;
52396;SDS011;38322;53.108;6.308;2023-01-06T09:59:01;12.07;;;1.63;;
52396;SDS011;38322;53.108;6.308;2023-01-06T10:01:43;12.73;;;0.93;;
52396;SDS011;38322;53.108;6.308;2023-01-06T10:04:13;6.97;;;1.55;;
52396;SDS011;38322;53.108;6.308;2023-01-06T10:06:47;8.50;;;1.40;;
52396;SDS011;38322;53.108;6.308;2023-01-06T10:09:26;6.75;;;0.80;;
52396;SDS011;38322;53.108;6.308;2023-01-06T10:14:38;5.35;;;0.85;;
52396;SDS011;38322;53.108;6.308;2023-01-06T10:17:20;7.20;;;1.10;;
52396;SDS011;38322;53.108;6.308;2023-01-06T10:19:54;3.80;;;1.23;;
52396;SDS011;38322;53.108;6.308;2023-01-06T10:27:34;11.15;;;0.93;;
52396;SDS011;38322;53.108;6.308;2023-01-06T10:30:04;7.38;;;0.80;;
52396;SDS011;38322;53.108;6.308;2023-01-06T10:32:49;9.73;;;1.10;;
52396;SDS011;38322;53.108;6.308;2023-01-06T10:35:16;6.82;;;0.60;;
52396;SDS011;38322;53.108;6.308;2023-01-06T10:37:45;8.32;;;1.38;;
52396;SDS011;38322;53.108;6.308;2023-01-06T10:40:18;10.32;;;0.77;;
52396;SDS011;38322;53.108;6.308;2023-01-06T10:42:46;8.10;;;0.77;;
52396;SDS011;38322;53.108;6.308;2023-01-06T10:45:22;10.55;;;1.70;;
52396;SDS011;38322;53.108;6.308;2023-01-06T10:47:50;15.23;;;1.58;;
52396;SDS011;38322;53.108;6.308;2023-01-06T10:50:17;11.20;;;1.45;;
52396;SDS011;38322;53.108;6.308;2023-01-06T10:52:44;8.25;;;1.02;;
52396;SDS011;38322;53.108;6.308;2023-01-06T10:55:25;4.85;;;0.60;;
52396;SDS011;38322;53.108;6.308;2023-01-06T10:58:01;13.75;;;1.38;;
52396;SDS011;38322;53.108;6.308;2023-01-06T11:00:52;5.50;;;0.73;;
52396;SDS011;38322;53.108;6.308;2023-01-06T11:03:21;3.83;;;0.75;;
52396;SDS011;38322;53.108;6.308;2023-01-06T11:05:47;7.47;;;1.15;;
52396;SDS011;38322;53.108;6.308;2023-01-06T11:08:25;7.38;;;0.90;;
52396;SDS011;38322;53.108;6.308;2023-01-06T11:10:52;5.65;;;1.00;;
52396;SDS011;38322;53.108;6.308;2023-01-06T11:13:21;10.40;;;1.58;;
52396;SDS011;38322;53.108;6.308;2023-01-06T11:15:51;11.73;;;1.02;;
52396;SDS011;38322;53.108;6.308;2023-01-06T11:18:26;5.90;;;1.00;;
52396;SDS011;38322;53.108;6.308;2023-01-06T11:21:01;8.13;;;0.68;;
52396;SDS011;38322;53.108;6.308;2023-01-06T11:23:30;11.30;;;1.30;;
52396;SDS011;38322;53.108;6.308;2023-01-06T11:26:04;12.60;;;1.77;;
52396;SDS011;38322;53.108;6.308;2023-01-06T11:28:38;13.88;;;1.60;;
52396;SDS011;38322;53.108;6.308;2023-01-06T11:33:33;8.30;;;0.95;;
52396;SDS011;38322;53.108;6.308;2023-01-06T11:36:08;10.68;;;1.55;;
52396;SDS011;38322;53.108;6.308;2023-01-06T11:38:41;8.93;;;1.15;;
52396;SDS011;38322;53.108;6.308;2023-01-06T11:41:10;6.38;;;1.17;;
52396;SDS011;38322;53.108;6.308;2023-01-06T11:43:37;9.45;;;0.75;;
52396;SDS011;38322;53.108;6.308;2023-01-06T11:46:07;11.48;;;1.95;;
52396;SDS011;38322;53.108;6.308;2023-01-06T11:48:57;9.90;;;1.25;;
52396;SDS011;38322;53.108;6.308;2023-01-06T11:51:50;14.00;;;1.35;;
52396;SDS011;38322;53.108;6.308;2023-01-06T11:54:30;7.57;;;1.58;;
52396;SDS011;38322;53.108;6.308;2023-01-06T11:57:00;13.00;;;2.63;;
52396;SDS011;38322;53.108;6.308;2023-01-06T11:59:41;8.32;;;0.80;;
52396;SDS011;38322;53.108;6.308;2023-01-06T12:02:16;11.25;;;1.77;;
52396;SDS011;38322;53.108;6.308;2023-01-06T12:04:52;8.18;;;1.80;;
52396;SDS011;38322;53.108;6.308;2023-01-06T12:07:23;8.38;;;0.80;;
52396;SDS011;38322;53.108;6.308;2023-01-06T12:09:57;4.45;;;0.95;;
52396;SDS011;38322;53.108;6.308;2023-01-06T12:12:28;18.42;;;2.75;;
52396;SDS011;38322;53.108;6.308;2023-01-06T12:14:54;11.57;;;2.88;;
52396;SDS011;38322;53.108;6.308;2023-01-06T12:17:31;6.53;;;1.10;;
52396;SDS011;38322;53.108;6.308;2023-01-06T12:20:02;12.88;;;3.50;;
52396;SDS011;38322;53.108;6.308;2023-01-06T12:22:43;9.85;;;1.33;;
52396;SDS011;38322;53.108;6.308;2023-01-06T12:25:17;12.10;;;1.17;;
52396;SDS011;38322;53.108;6.308;2023-01-06T12:27:48;10.35;;;0.93;;
52396;SDS011;38322;53.108;6.308;2023-01-06T12:30:22;10.43;;;1.80;;
52396;SDS011;38322;53.108;6.308;2023-01-06T12:32:55;12.00;;;1.45;;
52396;SDS011;38322;53.108;6.308;2023-01-06T12:35:27;6.32;;;1.98;;
52396;SDS011;38322;53.108;6.308;2023-01-06T12:38:00;9.10;;;1.58;;
52396;SDS011;38322;53.108;6.308;2023-01-06T12:40:40;4.70;;;0.80;;
52396;SDS011;38322;53.108;6.308;2023-01-06T12:43:14;8.52;;;2.20;;
52396;SDS011;38322;53.108;6.308;2023-01-06T12:48:15;10.95;;;2.13;;
52396;SDS011;38322;53.108;6.308;2023-01-06T12:50:51;9.10;;;1.10;;
52396;SDS011;38322;53.108;6.308;2023-01-06T12:53:22;7.97;;;1.27;;
52396;SDS011;38322;53.108;6.308;2023-01-06T12:55:56;9.40;;;1.92;;
52396;SDS011;38322;53.108;6.308;2023-01-06T12:58:46;6.85;;;0.70;;
52396;SDS011;38322;53.108;6.308;2023-01-06T13:01:29;7.43;;;2.28;;
52396;SDS011;38322;53.108;6.308;2023-01-06T13:06:42;5.95;;;0.60;;
52396;SDS011;38322;53.108;6.308;2023-01-06T13:09:44;9.55;;;0.90;;
52396;SDS011;38322;53.108;6.308;2023-01-06T13:15:12;4.78;;;0.80;;
52396;SDS011;38322;53.108;6.308;2023-01-06T13:18:04;8.90;;;1.00;;
52396;SDS011;38322;53.108;6.308;2023-01-06T13:23:31;11.30;;;1.48;;
52396;SDS011;38322;53.108;6.308;2023-01-06T13:28:55;21.27;;;2.63;;
52396;SDS011;38322;53.108;6.308;2023-01-06T13:39:39;9.98;;;1.90;;
52396;SDS011;38322;53.108;6.308;2023-01-06T13:42:08;10.20;;;1.00;;
52396;SDS011;38322;53.108;6.308;2023-01-06T13:44:41;11.57;;;1.60;;
52396;SDS011;38322;53.108;6.308;2023-01-06T13:47:12;4.47;;;0.63;;
52396;SDS011;38322;53.108;6.308;2023-01-06T13:49:42;6.18;;;0.60;;
52396;SDS011;38322;53.108;6.308;2023-01-06T13:52:13;4.25;;;1.58;;
52396;SDS011;38322;53.108;6.308;2023-01-06T13:59:55;10.88;;;0.90;;
52396;SDS011;38322;53.108;6.308;2023-01-06T14:10:31;6.55;;;0.65;;
52396;SDS011;38322;53.108;6.308;2023-01-06T14:13:01;5.57;;;1.55;;
52396;SDS011;38322;53.108;6.308;2023-01-06T14:15:30;10.60;;;1.98;;
52396;SDS011;38322;53.108;6.308;2023-01-06T14:17:58;11.00;;;0.95;;
52396;SDS011;38322;53.108;6.308;2023-01-06T14:20:30;5.55;;;0.55;;
52396;SDS011;38322;53.108;6.308;2023-01-06T14:23:01;9.35;;;1.35;;
52396;SDS011;38322;53.108;6.308;2023-01-06T14:25:29;8.35;;;0.95;;
52396;SDS011;38322;53.108;6.308;2023-01-06T14:30:28;11.65;;;1.90;;
52396;SDS011;38322;53.108;6.308;2023-01-06T14:33:03;8.30;;;1.08;;
52396;SDS011;38322;53.108;6.308;2023-01-06T14:35:37;9.13;;;1.70;;
52396;SDS011;38322;53.108;6.308;2023-01-06T14:38:17;8.05;;;1.02;;
52396;SDS011;38322;53.108;6.308;2023-01-06T14:40:50;11.82;;;1.33;;
52396;SDS011;38322;53.108;6.308;2023-01-06T14:43:26;11.98;;;1.60;;
52396;SDS011;38322;53.108;6.308;2023-01-06T14:45:55;11.48;;;2.13;;
52396;SDS011;38322;53.108;6.308;2023-01-06T14:48:25;10.02;;;2.10;;
52396;SDS011;38322;53.108;6.308;2023-01-06T14:50:56;14.30;;;1.20;;
52396;SDS011;38322;53.108;6.308;2023-01-06T14:53:26;11.77;;;1.10;;
52396;SDS011;38322;53.108;6.308;2023-01-06T14:55:57;13.13;;;1.98;;
52396;SDS011;38322;53.108;6.308;2023-01-06T14:58:31;12.32;;;1.33;;
52396;SDS011;38322;53.108;6.308;2023-01-06T15:00:58;9.20;;;1.27;;
52396;SDS011;38322;53.108;6.308;2023-01-06T15:03:26;11.35;;;1.63;;
52396;SDS011;38322;53.108;6.308;2023-01-06T15:08:37;8.48;;;2.03;;
52396;SDS011;38322;53.108;6.308;2023-01-06T15:11:22;7.47;;;2.45;;
52396;SDS011;38322;53.108;6.308;2023-01-06T15:13:48;8.73;;;2.08;;
52396;SDS011;38322;53.108;6.308;2023-01-06T15:16:19;12.63;;;2.17;;
52396;SDS011;38322;53.108;6.308;2023-01-06T15:18:47;5.82;;;1.08;;
52396;SDS011;38322;53.108;6.308;2023-01-06T15:21:17;9.85;;;1.67;;
52396;SDS011;38322;53.108;6.308;2023-01-06T15:23:45;14.02;;;1.95;;
52396;SDS011;38322;53.108;6.308;2023-01-06T15:26:16;10.52;;;1.52;;
52396;SDS011;38322;53.108;6.308;2023-01-06T15:28:58;10.00;;;1.65;;
52396;SDS011;38322;53.108;6.308;2023-01-06T15:31:26;14.45;;;1.25;;
52396;SDS011;38322;53.108;6.308;2023-01-06T15:33:55;10.32;;;1.50;;
52396;SDS011;38322;53.108;6.308;2023-01-06T15:36:22;9.35;;;2.10;;
52396;SDS011;38322;53.108;6.308;2023-01-06T15:38:50;6.38;;;1.02;;
52396;SDS011;38322;53.108;6.308;2023-01-06T15:41:20;20.83;;;1.85;;
52396;SDS011;38322;53.108;6.308;2023-01-06T15:43:59;14.45;;;2.03;;
52396;SDS011;38322;53.108;6.308;2023-01-06T15:46:26;12.55;;;2.30;;
52396;SDS011;38322;53.108;6.308;2023-01-06T15:49:02;7.57;;;1.20;;
52396;SDS011;38322;53.108;6.308;2023-01-06T15:51:29;13.20;;;2.10;;
52396;SDS011;38322;53.108;6.308;2023-01-06T15:53:56;15.90;;;2.58;;
52396;SDS011;38322;53.108;6.308;2023-01-06T15:56:24;8.57;;;1.92;;
52396;SDS011;38322;53.108;6.308;2023-01-06T15:58:53;6.70;;;1.10;;
52396;SDS011;38322;53.108;6.308;2023-01-06T16:01:20;8.60;;;1.83;;
52396;SDS011;38322;53.108;6.308;2023-01-06T16:03:55;11.35;;;1.77;;
52396;SDS011;38322;53.108;6.308;2023-01-06T16:06:25;8.18;;;1.80;;
52396;SDS011;38322;53.108;6.308;2023-01-06T16:08:53;7.95;;;2.03;;
52396;SDS011;38322;53.108;6.308;2023-01-06T16:11:38;11.02;;;1.13;;
52396;SDS011;38322;53.108;6.308;2023-01-06T16:14:23;11.35;;;1.30;;
52396;SDS011;38322;53.108;6.308;2023-01-06T16:16:51;12.57;;;2.00;;
52396;SDS011;38322;53.108;6.308;2023-01-06T16:19:19;15.38;;;2.47;;
52396;SDS011;38322;53.108;6.308;2023-01-06T16:21:49;5.72;;;1.27;;
52396;SDS011;38322;53.108;6.308;2023-01-06T16:24:24;10.00;;;2.95;;
52396;SDS011;38322;53.108;6.308;2023-01-06T16:26:54;9.15;;;1.77;;
52396;SDS011;38322;53.108;6.308;2023-01-06T16:31:50;14.48;;;2.95;;
52396;SDS011;38322;53.108;6.308;2023-01-06T16:36:45;7.88;;;1.58;;
52396;SDS011;38322;53.108;6.308;2023-01-06T16:39:12;9.90;;;2.17;;
52396;SDS011;38322;53.108;6.308;2023-01-06T16:41:40;7.40;;;1.80;;
52396;SDS011;38322;53.108;6.308;2023-01-06T16:44:23;7.57;;;1.23;;
52396;SDS011;38322;53.108;6.308;2023-01-06T16:46:54;7.63;;;1.70;;
52396;SDS011;38322;53.108;6.308;2023-01-06T16:49:20;7.60;;;1.40;;
52396;SDS011;38322;53.108;6.308;2023-01-06T16:51:47;11.73;;;2.60;;
52396;SDS011;38322;53.108;6.308;2023-01-06T16:54:14;7.78;;;1.33;;
52396;SDS011;38322;53.108;6.308;2023-01-06T16:56:47;6.95;;;1.52;;
52396;SDS011;38322;53.108;6.308;2023-01-06T16:59:16;11.85;;;2.92;;
52396;SDS011;38322;53.108;6.308;2023-01-06T17:01:44;7.15;;;1.58;;
52396;SDS011;38322;53.108;6.308;2023-01-06T17:04:12;8.25;;;1.20;;
52396;SDS011;38322;53.108;6.308;2023-01-06T17:06:39;10.68;;;3.03;;
52396;SDS011;38322;53.108;6.308;2023-01-06T17:09:14;9.82;;;1.67;;
52396;SDS011;38322;53.108;6.308;2023-01-06T17:11:43;7.25;;;2.22;;
52396;SDS011;38322;53.108;6.308;2023-01-06T17:14:16;12.45;;;2.28;;
52396;SDS011;38322;53.108;6.308;2023-01-06T17:16:44;5.95;;;2.28;;
52396;SDS011;38322;53.108;6.308;2023-01-06T17:19:17;8.57;;;1.80;;
52396;SDS011;38322;53.108;6.308;2023-01-06T17:21:53;9.02;;;1.50;;
52396;SDS011;38322;53.108;6.308;2023-01-06T17:24:27;9.57;;;1.80;;
52396;SDS011;38322;53.108;6.308;2023-01-06T17:29:44;11.25;;;1.85;;
52396;SDS011;38322;53.108;6.308;2023-01-06T17:32:16;10.73;;;2.20;;
52396;SDS011;38322;53.108;6.308;2023-01-06T17:34:46;11.35;;;2.42;;
52396;SDS011;38322;53.108;6.308;2023-01-06T17:37:14;8.95;;;1.55;;
52396;SDS011;38322;53.108;6.308;2023-01-06T17:39:46;13.38;;;1.73;;
52396;SDS011;38322;53.108;6.308;2023-01-06T17:44:38;10.20;;;2.22;;
52396;SDS011;38322;53.108;6.308;2023-01-06T17:49:39;8.32;;;2.00;;
52396;SDS011;38322;53.108;6.308;2023-01-06T17:52:12;7.32;;;1.65;;
52396;SDS011;38322;53.108;6.308;2023-01-06T17:54:39;15.25;;;2.45;;
52396;SDS011;38322;53.108;6.308;2023-01-06T17:57:24;8.73;;;1.80;;
52396;SDS011;38322;53.108;6.308;2023-01-06T17:59:52;9.50;;;2.17;;
52396;SDS011;38322;53.108;6.308;2023-01-06T18:07:55;8.63;;;2.13;;
52396;SDS011;38322;53.108;6.308;2023-01-06T18:10:30;9.68;;;2.22;;
52396;SDS011;38322;53.108;6.308;2023-01-06T18:12:59;13.27;;;2.65;;
52396;SDS011;38322;53.108;6.308;2023-01-06T18:15:34;6.05;;;3.08;;
52396;SDS011;38322;53.108;6.308;2023-01-06T18:18:01;8.75;;;1.85;;
52396;SDS011;38322;53.108;6.308;2023-01-06T18:20:46;11.15;;;3.63;;
52396;SDS011;38322;53.108;6.308;2023-01-06T18:23:17;9.90;;;2.58;;
52396;SDS011;38322;53.108;6.308;2023-01-06T18:25:45;12.27;;;3.22;;
52396;SDS011;38322;53.108;6.308;2023-01-06T18:28:13;9.63;;;2.78;;
52396;SDS011;38322;53.108;6.308;2023-01-06T18:30:43;10.75;;;2.97;;
52396;SDS011;38322;53.108;6.308;2023-01-06T18:33:13;9.82;;;3.03;;
52396;SDS011;38322;53.108;6.308;2023-01-06T18:35:40;7.45;;;2.17;;
52396;SDS011;38322;53.108;6.308;2023-01-06T18:38:07;8.95;;;2.85;;
52396;SDS011;38322;53.108;6.308;2023-01-06T18:40:34;7.13;;;2.33;;
52396;SDS011;38322;53.108;6.308;2023-01-06T18:43:13;13.25;;;2.45;;
52396;SDS011;38322;53.108;6.308;2023-01-06T18:45:50;10.85;;;3.53;;
52396;SDS011;38322;53.108;6.308;2023-01-06T18:48:37;8.65;;;2.33;;
52396;SDS011;38322;53.108;6.308;2023-01-06T18:51:05;9.48;;;2.95;;
52396;SDS011;38322;53.108;6.308;2023-01-06T18:53:44;9.45;;;2.47;;
52396;SDS011;38322;53.108;6.308;2023-01-06T18:56:15;4.05;;;2.17;;
52396;SDS011;38322;53.108;6.308;2023-01-06T18:58:45;8.63;;;2.53;;
52396;SDS011;38322;53.108;6.308;2023-01-06T19:01:17;6.22;;;3.08;;
52396;SDS011;38322;53.108;6.308;2023-01-06T19:03:55;9.23;;;1.88;;
52396;SDS011;38322;53.108;6.308;2023-01-06T19:06:28;8.38;;;3.30;;
52396;SDS011;38322;53.108;6.308;2023-01-06T19:08:57;9.15;;;2.47;;
52396;SDS011;38322;53.108;6.308;2023-01-06T19:11:25;6.47;;;2.67;;
52396;SDS011;38322;53.108;6.308;2023-01-06T19:13:53;8.82;;;2.03;;
52396;SDS011;38322;53.108;6.308;2023-01-06T19:16:32;11.30;;;2.30;;
52396;SDS011;38322;53.108;6.308;2023-01-06T19:21:35;8.68;;;3.33;;
52396;SDS011;38322;53.108;6.308;2023-01-06T19:26:51;3.28;;;1.42;;
52396;SDS011;38322;53.108;6.308;2023-01-06T19:29:17;5.00;;;1.85;;
52396;SDS011;38322;53.108;6.308;2023-01-06T19:31:51;6.00;;;2.45;;
52396;SDS011;38322;53.108;6.308;2023-01-06T19:36:48;6.20;;;2.38;;
52396;SDS011;38322;53.108;6.308;2023-01-06T19:44:38;8.07;;;2.22;;
52396;SDS011;38322;53.108;6.308;2023-01-06T19:47:14;8.98;;;2.38;;
52396;SDS011;38322;53.108;6.308;2023-01-06T19:49:43;5.45;;;1.58;;
52396;SDS011;38322;53.108;6.308;2023-01-06T19:55:09;10.65;;;2.55;;
52396;SDS011;38322;53.108;6.308;2023-01-06T19:57:43;7.35;;;2.45;;
52396;SDS011;38322;53.108;6.308;2023-01-06T20:00:18;3.30;;;1.77;;
52396;SDS011;38322;53.108;6.308;2023-01-06T20:02:55;3.67;;;1.90;;
52396;SDS011;38322;53.108;6.308;2023-01-06T20:05:24;6.25;;;3.45;;
52396;SDS011;38322;53.108;6.308;2023-01-06T20:07:51;9.25;;;2.42;;
52396;SDS011;38322;53.108;6.308;2023-01-06T20:10:17;14.75;;;3.72;;
52396;SDS011;38322;53.108;6.308;2023-01-06T20:12:45;9.13;;;2.60;;
52396;SDS011;38322;53.108;6.308;2023-01-06T20:15:12;5.82;;;3.28;;
52396;SDS011;38322;53.108;6.308;2023-01-06T20:17:39;9.60;;;3.25;;
52396;SDS011;38322;53.108;6.308;2023-01-06T20:20:05;5.80;;;2.40;;
52396;SDS011;38322;53.108;6.308;2023-01-06T20:22:31;8.63;;;2.55;;
52396;SDS011;38322;53.108;6.308;2023-01-06T20:24:57;6.22;;;2.97;;
52396;SDS011;38322;53.108;6.308;2023-01-06T20:27:23;8.27;;;4.63;;
52396;SDS011;38322;53.108;6.308;2023-01-06T20:29:49;5.57;;;3.08;;
52396;SDS011;38322;53.108;6.308;2023-01-06T20:32:16;6.43;;;2.55;;
52396;SDS011;38322;53.108;6.308;2023-01-06T20:34:42;6.80;;;3.15;;
52396;SDS011;38322;53.108;6.308;2023-01-06T20:37:08;7.03;;;4.05;;
52396;SDS011;38322;53.108;6.308;2023-01-06T20:39:34;8.27;;;3.33;;
52396;SDS011;38322;53.108;6.308;2023-01-06T20:41:59;12.05;;;3.67;;
52396;SDS011;38322;53.108;6.308;2023-01-06T20:44:28;5.78;;;3.72;;
52396;SDS011;38322;53.108;6.308;2023-01-06T20:46:54;11.48;;;4.05;;
52396;SDS011;38322;53.108;6.308;2023-01-06T20:49:20;8.50;;;2.75;;
52396;SDS011;38322;53.108;6.308;2023-01-06T20:51:46;8.80;;;3.97;;
52396;SDS011;38322;53.108;6.308;2023-01-06T20:54:11;9.05;;;3.95;;
52396;SDS011;38322;53.108;6.308;2023-01-06T20:56:37;10.38;;;4.18;;
52396;SDS011;38322;53.108;6.308;2023-01-06T20:59:03;6.47;;;2.97;;
